Time;durP1;ratioP1;P1;durP2;ratioP2;P2;SDS_P1;SDS_P2;PMS_P1;PMS_P2;Temp;Humidity;BMP_temperature;BMP_pressure;BME280_temperature;BME280_humidity;BME280_pressure;Samples;Min_cycle;Max_cycle;Signal;HPM_P1;HPM_P2
2023/06/30 00:02:13;;;;;;;0.43;0.38;;;;;;;12.70;100.00;100687.78;5022571;28;20086;-76
2023/06/30 00:04:39;;;;;;;0.20;0.20;;;;;;;12.69;100.00;100678.00;5022183;28;20395;-77
2023/06/30 00:07:09;;;;;;;2.08;0.63;;;;;;;12.66;100.00;100670.28;5038592;28;20045;-77
2023/06/30 00:09:35;;;;;;;1.55;0.50;;;;;;;12.61;100.00;100678.13;5022312;28;20056;-78
2023/06/30 00:12:00;;;;;;;0.30;0.30;;;;;;;12.56;100.00;100674.34;5022543;28;20044;-76
2023/06/30 00:14:26;;;;;;;0.20;0.20;;;;;;;12.54;100.00;100669.97;5054791;28;20091;-76
2023/06/30 00:16:56;;;;;;;0.43;0.40;;;;;;;12.53;100.00;100680.94;5022608;28;20475;-77
2023/06/30 00:19:24;;;;;;;0.20;0.20;;;;;;;12.52;100.00;100668.50;5022647;28;20483;-77
2023/06/30 00:21:52;;;;;;;0.20;0.20;;;;;;;12.51;100.00;100669.50;5038954;28;20030;-77
2023/06/30 00:24:18;;;;;;;0.45;0.30;;;;;;;12.52;100.00;100658.53;5039050;28;20048;-76
2023/06/30 00:26:44;;;;;;;0.30;0.30;;;;;;;12.49;100.00;100652.66;5005962;28;20541;-77
2023/06/30 00:29:10;;;;;;;0.85;0.40;;;;;;;12.51;100.00;100653.31;5022052;28;20037;-76
2023/06/30 00:31:36;;;;;;;0.20;0.20;;;;;;;12.51;100.00;100645.22;5022254;28;20107;-79
2023/06/30 00:34:02;;;;;;;0.32;0.30;;;;;;;12.50;100.00;100654.34;5038367;28;20056;-79
2023/06/30 00:36:29;;;;;;;0.20;0.20;;;;;;;12.52;100.00;100646.91;5021834;28;20467;-79
2023/06/30 00:38:58;;;;;;;1.08;0.50;;;;;;;12.50;100.00;100640.88;5038095;28;20025;-79
2023/06/30 00:41:24;;;;;;;0.20;0.20;;;;;;;12.46;100.00;100636.88;5038560;28;20044;-78
2023/06/30 00:43:52;;;;;;;0.20;0.20;;;;;;;12.48;100.00;100641.06;5021809;28;20033;-78
2023/06/30 00:46:18;;;;;;;0.45;0.38;;;;;;;12.48;100.00;100646.44;5021943;28;20044;-77
2023/06/30 00:48:44;;;;;;;0.20;0.20;;;;;;;12.49;100.00;100641.88;5021468;28;20029;-79
2023/06/30 00:51:11;;;;;;;0.20;0.20;;;;;;;12.48;100.00;100627.56;5021271;28;20044;-78
2023/06/30 00:53:37;;;;;;;0.20;0.20;;;;;;;12.49;100.00;100623.88;5021496;28;20047;-80
2023/06/30 00:56:03;;;;;;;0.43;0.43;;;;;;;12.51;100.00;100618.25;5021713;28;20193;-78
2023/06/30 00:58:32;;;;;;;0.75;0.40;;;;;;;12.51;100.00;100623.66;5036929;28;20111;-80
2023/06/30 01:01:11;;;;;;;0.32;0.32;;;;;;;12.50;100.00;100606.66;5054196;28;20449;-79
2023/06/30 01:03:42;;;;;;;0.20;0.20;;;;;;;12.56;100.00;100605.03;5054678;28;20033;-79
2023/06/30 01:06:10;;;;;;;0.55;0.30;;;;;;;12.58;100.00;100608.38;5021494;28;20094;-78
2023/06/30 01:08:50;;;;;;;0.30;0.30;;;;;;;12.60;100.00;100598.25;5020910;28;20025;-79
2023/06/30 01:11:20;;;;;;;0.30;0.30;;;;;;;12.63;100.00;100599.72;5021535;28;20044;-79
2023/06/30 01:13:47;;;;;;;0.25;0.25;;;;;;;12.65;100.00;100597.66;5037500;28;20036;-79
2023/06/30 01:16:13;;;;;;;0.32;0.30;;;;;;;12.68;100.00;100600.81;5004850;28;20029;-78
2023/06/30 01:18:44;;;;;;;0.40;0.28;;;;;;;12.71;100.00;100591.50;5005024;28;20128;-80
2023/06/30 01:21:13;;;;;;;0.30;0.30;;;;;;;12.74;100.00;100597.31;5054008;28;20082;-79
2023/06/30 01:23:43;;;;;;;0.20;0.20;;;;;;;12.73;100.00;100578.66;5054206;28;20036;-79
2023/06/30 01:26:10;;;;;;;0.55;0.30;;;;;;;12.81;100.00;100583.06;5037583;28;20045;-79
2023/06/30 01:28:36;;;;;;;0.20;0.20;;;;;;;12.85;100.00;100582.47;5004482;28;20033;-79
2023/06/30 01:31:08;;;;;;;0.20;0.20;;;;;;;12.86;100.00;100567.09;5021004;28;20079;-78
2023/06/30 01:33:38;;;;;;;0.30;0.30;;;;;;;12.89;100.00;100567.56;5022643;28;20111;-78
2023/06/30 01:36:04;;;;;;;0.70;0.32;;;;;;;12.93;100.00;100565.31;5054947;28;20035;-78
2023/06/30 01:38:30;;;;;;;0.30;0.30;;;;;;;12.95;100.00;100553.28;5037100;28;20036;-79
2023/06/30 01:40:56;;;;;;;0.20;0.20;;;;;;;12.97;100.00;100540.44;5020472;28;20040;-78
2023/06/30 01:43:23;;;;;;;0.30;0.30;;;;;;;13.04;100.00;100543.16;5054774;28;20029;-78
2023/06/30 01:45:49;;;;;;;0.30;0.30;;;;;;;13.06;100.00;100535.72;5036628;28;20075;-78
2023/06/30 01:48:16;;;;;;;0.30;0.30;;;;;;;13.04;100.00;100526.97;5020433;28;20474;-79
2023/06/30 01:50:43;;;;;;;0.30;0.30;;;;;;;13.11;100.00;100535.13;5019315;28;20404;-78
2023/06/30 01:53:08;;;;;;;0.65;0.32;;;;;;;13.09;100.00;100526.38;5004483;28;20035;-78
2023/06/30 01:55:34;;;;;;;0.22;0.22;;;;;;;13.15;100.00;100528.28;5020712;28;20123;-79
2023/06/30 01:58:00;;;;;;;0.20;0.20;;;;;;;13.16;100.00;100527.28;5020466;28;20546;-79
2023/06/30 02:00:26;;;;;;;0.20;0.20;;;;;;;13.15;100.00;100529.16;5052719;28;20121;-78
2023/06/30 02:02:51;;;;;;;0.30;0.30;;;;;;;13.21;100.00;100527.50;5020612;28;20033;-79
2023/06/30 02:05:17;;;;;;;0.45;0.30;;;;;;;13.20;100.00;100532.09;5020444;28;20102;-79
2023/06/30 02:07:43;;;;;;;0.20;0.20;;;;;;;13.23;100.00;100524.59;5019730;28;20111;-78
2023/06/30 02:10:09;;;;;;;0.30;0.30;;;;;;;13.22;100.00;100525.63;5020386;28;20029;-79
2023/06/30 02:12:37;;;;;;;0.20;0.20;;;;;;;13.27;100.00;100525.91;5036422;28;20112;-78
2023/06/30 02:15:03;;;;;;;0.20;0.20;;;;;;;13.28;100.00;100524.88;5036527;28;20479;-79
2023/06/30 02:17:32;;;;;;;0.30;0.30;;;;;;;13.28;100.00;100517.59;5036257;28;20162;-78
2023/06/30 02:20:02;;;;;;;0.30;0.30;;;;;;;13.29;100.00;100515.75;5020896;28;20037;-79
2023/06/30 02:22:30;;;;;;;1.00;0.47;;;;;;;13.29;100.00;100518.44;5003503;28;20032;-79
2023/06/30 02:24:57;;;;;;;0.20;0.20;;;;;;;13.30;100.00;100520.09;5020171;28;20040;-78
2023/06/30 02:27:27;;;;;;;1.17;0.50;;;;;;;13.30;100.00;100514.72;5019805;28;20508;-79
2023/06/30 02:29:53;;;;;;;0.30;0.30;;;;;;;13.32;100.00;100515.34;5052930;28;20029;-79
2023/06/30 02:32:19;;;;;;;0.20;0.20;;;;;;;13.29;100.00;100507.66;5019838;28;20402;-79
2023/06/30 02:34:45;;;;;;;0.30;0.30;;;;;;;13.30;100.00;100504.72;5052389;28;20033;-79
2023/06/30 02:37:10;;;;;;;0.20;0.20;;;;;;;13.31;100.00;100500.16;5019859;28;20182;-78
2023/06/30 02:39:36;;;;;;;0.20;0.20;;;;;;;13.33;100.00;100508.91;5036068;28;20037;-79
2023/06/30 02:42:03;;;;;;;0.20;0.20;;;;;;;13.35;100.00;100501.44;5052658;28;20120;-77
2023/06/30 02:44:29;;;;;;;1.17;0.47;;;;;;;13.33;100.00;100498.09;5035722;28;20474;-79
2023/06/30 02:46:58;;;;;;;1.27;0.50;;;;;;;13.37;100.00;100489.41;5019469;28;20044;-79
2023/06/30 02:49:24;;;;;;;0.30;0.30;;;;;;;13.37;100.00;100489.41;5020099;28;20120;-79
2023/06/30 02:51:49;;;;;;;0.20;0.20;;;;;;;13.37;100.00;100486.69;5019784;28;20120;-79
2023/06/30 02:54:15;;;;;;;0.30;0.30;;;;;;;13.38;100.00;100487.53;5019390;28;20486;-80
2023/06/30 02:56:41;;;;;;;0.30;0.30;;;;;;;13.38;100.00;100484.84;5019544;28;20123;-79
2023/06/30 02:59:06;;;;;;;0.43;0.30;;;;;;;13.38;100.00;100488.34;5019599;28;20025;-78
2023/06/30 03:01:35;;;;;;;0.30;0.30;;;;;;;13.39;100.00;100481.13;5035247;28;20028;-78
2023/06/30 03:04:03;;;;;;;0.30;0.30;;;;;;;13.41;100.00;100487.13;5035946;28;20414;-78
2023/06/30 03:06:30;;;;;;;0.55;0.30;;;;;;;13.40;100.00;100490.88;5019458;28;20045;-79
2023/06/30 03:08:55;;;;;;;0.30;0.30;;;;;;;13.42;100.00;100488.81;5003006;28;20037;-79
2023/06/30 03:11:21;;;;;;;0.20;0.20;;;;;;;13.41;100.00;100481.72;5019640;28;20036;-78
2023/06/30 03:13:49;;;;;;;0.30;0.30;;;;;;;13.42;100.00;100480.72;5051775;28;20051;-79
2023/06/30 03:16:15;;;;;;;0.30;0.22;;;;;;;13.43;100.00;100484.25;5019633;28;20043;-79
2023/06/30 03:18:40;;;;;;;0.20;0.20;;;;;;;13.43;100.00;100489.63;5035935;28;20032;-79
2023/06/30 03:21:06;;;;;;;0.32;0.30;;;;;;;13.39;100.00;100491.91;5003087;28;20075;-79
2023/06/30 03:23:32;;;;;;;0.30;0.30;;;;;;;13.41;100.00;100496.06;5019465;28;20380;-78
2023/06/30 03:25:57;;;;;;;0.20;0.20;;;;;;;13.34;100.00;100478.19;5053139;28;20120;-79
2023/06/30 03:28:23;;;;;;;0.35;0.30;;;;;;;13.37;100.00;100488.56;5035415;28;20369;-80
2023/06/30 03:30:49;;;;;;;0.20;0.20;;;;;;;13.33;100.00;100481.91;5052182;28;20025;-79
2023/06/30 03:33:14;;;;;;;0.50;0.30;;;;;;;13.32;100.00;100470.28;5051978;28;20029;-79
2023/06/30 03:35:40;;;;;;;0.20;0.20;;;;;;;13.32;100.00;100472.97;5019018;28;20368;-78
2023/06/30 03:38:05;;;;;;;0.20;0.20;;;;;;;13.29;100.00;100469.84;5035677;28;20036;-78
2023/06/30 03:40:31;;;;;;;0.20;0.20;;;;;;;13.19;100.00;100454.81;5019205;28;20033;-78
2023/06/30 03:42:57;;;;;;;0.30;0.30;;;;;;;13.24;100.00;100462.31;5018383;28;20544;-78
2023/06/30 03:45:22;;;;;;;1.00;0.50;;;;;;;13.23;100.00;100457.94;5051506;28;20468;-78
2023/06/30 03:47:48;;;;;;;0.30;0.30;;;;;;;13.21;100.00;100457.31;5035245;28;20478;-79
2023/06/30 03:50:14;;;;;;;0.55;0.30;;;;;;;13.18;100.00;100439.66;5019057;28;20051;-80
2023/06/30 03:52:40;;;;;;;0.30;0.30;;;;;;;13.16;100.00;100444.41;5018753;28;20032;-79
2023/06/30 03:55:08;;;;;;;0.30;0.30;;;;;;;13.20;100.00;100447.53;5018692;28;20107;-79
2023/06/30 03:57:34;;;;;;;0.30;0.30;;;;;;;13.20;100.00;100448.38;5035088;28;20032;-78
2023/06/30 04:00:00;;;;;;;0.22;0.22;;;;;;;13.20;100.00;100447.53;5018761;28;20029;-79
2023/06/30 04:02:25;;;;;;;0.20;0.20;;;;;;;13.25;100.00;100447.75;5035176;28;20033;-77
2023/06/30 04:04:51;;;;;;;0.30;0.30;;;;;;;13.25;100.00;100447.75;5035272;28;20029;-78
2023/06/30 04:07:17;;;;;;;0.35;0.32;;;;;;;13.24;100.00;100435.31;5053072;28;20041;-78
2023/06/30 04:09:45;;;;;;;0.30;0.30;;;;;;;13.31;100.00;100447.00;5034931;28;20423;-78
2023/06/30 04:12:11;;;;;;;0.30;0.30;;;;;;;13.32;100.00;100437.03;5019176;28;20087;-78
2023/06/30 04:14:36;;;;;;;0.20;0.20;;;;;;;13.19;100.00;100419.72;5038872;28;20028;-78
2023/06/30 04:17:05;;;;;;;0.20;0.20;;;;;;;13.34;100.00;100437.69;5039460;28;20147;-78
2023/06/30 04:19:31;;;;;;;0.38;0.35;;;;;;;13.36;100.00;100432.88;5055059;28;20112;-77
2023/06/30 04:21:56;;;;;;;0.20;0.20;;;;;;;13.28;100.00;100415.00;5022187;28;20041;-78
2023/06/30 04:24:22;;;;;;;0.30;0.30;;;;;;;13.30;100.00;100425.59;5038671;28;20048;-78
2023/06/30 04:26:48;;;;;;;1.33;0.50;;;;;;;13.37;100.00;100430.00;5038436;28;20067;-78
2023/06/30 04:29:14;;;;;;;0.20;0.20;;;;;;;13.39;100.00;100437.91;5038428;28;20068;-78
2023/06/30 04:31:39;;;;;;;0.32;0.30;;;;;;;13.22;100.00;100410.38;5038617;28;20391;-78
2023/06/30 04:34:05;;;;;;;0.30;0.30;;;;;;;13.39;100.00;100427.94;5055999;28;20025;-79
2023/06/30 04:36:39;;;;;;;1.70;0.60;;;;;;;13.34;100.00;100422.31;5039591;28;20035;-78
2023/06/30 04:39:05;;;;;;;0.65;0.40;;;;;;;13.38;100.00;100426.25;5054236;28;20033;-78
2023/06/30 04:41:31;;;;;;;1.13;0.50;;;;;;;13.44;100.00;100445.38;5054385;28;20036;-79
2023/06/30 04:43:59;;;;;;;0.57;0.30;;;;;;;13.44;100.00;100443.50;5038374;28;20029;-78
2023/06/30 04:46:30;;;;;;;0.47;0.30;;;;;;;13.46;100.00;100438.75;5038482;28;20501;-78
2023/06/30 04:48:56;;;;;;;0.30;0.30;;;;;;;13.48;100.00;100431.28;5021862;28;20029;-79
2023/06/30 04:51:21;;;;;;;0.30;0.30;;;;;;;13.49;100.00;100434.81;5054825;28;20364;-77
2023/06/30 04:53:47;;;;;;;0.68;0.40;;;;;;;13.52;100.00;100429.84;5038282;28;20091;-77
2023/06/30 04:56:16;;;;;;;0.20;0.20;;;;;;;13.56;100.00;100438.38;5022405;28;20103;-78
2023/06/30 04:58:41;;;;;;;0.30;0.30;;;;;;;13.55;100.00;100424.03;5038118;28;20460;-78
2023/06/30 05:01:07;;;;;;;0.60;0.30;;;;;;;13.60;100.00;100420.69;5037751;28;20052;-79
2023/06/30 05:03:33;;;;;;;0.22;0.22;;;;;;;13.57;100.00;100404.91;5037218;28;20211;-80
2023/06/30 05:05:59;;;;;;;0.30;0.30;;;;;;;13.63;100.00;100396.00;5021340;28;20041;-79
2023/06/30 05:08:24;;;;;;;0.20;0.20;;;;;;;13.80;100.00;100408.06;5054516;28;20037;-79
2023/06/30 05:10:50;;;;;;;0.20;0.20;;;;;;;13.85;100.00;100411.00;5037965;28;20474;-78
2023/06/30 05:13:16;;;;;;;0.50;0.30;;;;;;;13.96;100.00;100412.25;5037282;28;20051;-79
2023/06/30 05:15:44;;;;;;;0.32;0.30;;;;;;;14.06;100.00;100411.84;5037483;28;20036;-79
2023/06/30 05:18:10;;;;;;;0.45;0.30;;;;;;;14.05;100.00;100411.03;5021772;28;20150;-79
2023/06/30 05:20:36;;;;;;;1.27;0.50;;;;;;;14.07;100.00;100414.31;5037719;28;20063;-77
2023/06/30 05:23:08;;;;;;;0.52;0.38;;;;;;;14.01;100.00;100403.53;5021210;28;20029;-78
2023/06/30 05:25:34;;;;;;;0.98;0.45;;;;;;;13.94;100.00;100395.41;5019530;28;20037;-78
2023/06/30 05:28:00;;;;;;;0.25;0.25;;;;;;;13.94;100.00;100405.38;5037423;28;20029;-78
2023/06/30 05:30:25;;;;;;;0.60;0.35;;;;;;;13.81;100.00;100389.97;5054089;28;20048;-79
2023/06/30 05:32:51;;;;;;;0.20;0.20;;;;;;;13.85;100.00;100393.94;5037268;28;20084;-79
2023/06/30 05:35:17;;;;;;;0.52;0.30;;;;;;;13.75;100.00;100380.84;5020260;28;20067;-78
2023/06/30 05:37:42;;;;;;;0.30;0.30;;;;;;;13.85;100.00;100400.19;5037276;28;20043;-79
2023/06/30 05:40:08;;;;;;;0.20;0.20;;;;;;;13.84;100.00;100393.13;5037086;28;20036;-79
2023/06/30 05:42:34;;;;;;;0.28;0.28;;;;;;;13.83;100.00;100386.03;5020606;28;20136;-79
2023/06/30 05:45:00;;;;;;;0.95;0.43;;;;;;;13.87;100.00;100385.66;5037155;28;20041;-80
2023/06/30 05:47:28;;;;;;;0.70;0.40;;;;;;;13.92;100.00;100392.09;5020145;28;20037;-79
2023/06/30 05:49:53;;;;;;;0.20;0.20;;;;;;;13.94;100.00;100391.88;5020975;28;20067;-79
2023/06/30 05:52:21;;;;;;;0.40;0.35;;;;;;;13.98;100.00;100395.84;5036446;28;20053;-79
2023/06/30 05:54:52;;;;;;;0.20;0.20;;;;;;;13.96;100.00;100384.41;5037760;28;20075;-79
2023/06/30 05:57:18;;;;;;;1.08;0.45;;;;;;;13.96;100.00;100382.50;5053092;28;20052;-79
2023/06/30 05:59:43;;;;;;;0.57;0.38;;;;;;;13.97;100.00;100384.19;5052761;28;20060;-78
2023/06/30 06:02:09;;;;;;;0.25;0.25;;;;;;;13.98;100.00;100390.44;5053343;28;20115;-79
2023/06/30 06:04:38;;;;;;;0.30;0.30;;;;;;;13.79;100.00;100365.06;5036611;28;20100;-79
2023/06/30 06:07:05;;;;;;;0.30;0.30;;;;;;;13.96;100.00;100398.72;5036619;28;20090;-79
2023/06/30 06:09:31;;;;;;;0.57;0.40;;;;;;;13.97;100.00;100397.72;5036851;28;20044;-78
2023/06/30 06:11:59;;;;;;;0.30;0.30;;;;;;;13.97;100.00;100388.75;5020315;28;20057;-79
2023/06/30 06:14:25;;;;;;;0.65;0.40;;;;;;;13.97;100.00;100386.91;5020140;28;20036;-79
2023/06/30 06:16:51;;;;;;;0.25;0.25;;;;;;;14.00;100.00;100391.88;5036526;28;20025;-79
2023/06/30 06:19:17;;;;;;;0.40;0.30;;;;;;;13.97;100.00;100364.41;5036508;28;20021;-79
2023/06/30 06:21:43;;;;;;;0.25;0.25;;;;;;;14.08;100.00;100374.63;5053915;28;20108;-79
2023/06/30 06:24:08;;;;;;;1.27;0.45;;;;;;;14.16;100.00;100371.72;5020120;28;20120;-79
2023/06/30 06:26:36;;;;;;;0.25;0.25;;;;;;;14.17;100.00;100369.84;5036529;28;20083;-80
2023/06/30 06:29:01;;;;;;;0.77;0.40;;;;;;;14.13;100.00;100357.75;5035909;28;20120;-80
2023/06/30 06:31:31;;;;;;;0.20;0.20;;;;;;;14.16;100.00;100360.91;5036489;28;20037;-79
2023/06/30 06:33:56;;;;;;;0.70;0.40;;;;;;;14.20;100.00;100355.91;5036251;28;20036;-78
2023/06/30 06:36:22;;;;;;;0.50;0.30;;;;;;;14.26;100.00;100363.16;5018862;28;20490;-79
2023/06/30 06:38:48;;;;;;;0.28;0.28;;;;;;;14.26;100.00;100350.50;5052733;28;20033;-79
2023/06/30 06:41:13;;;;;;;0.73;0.40;;;;;;;14.40;100.00;100359.41;5019809;28;20033;-78
2023/06/30 06:43:39;;;;;;;0.20;0.20;;;;;;;14.45;100.00;100365.03;5053903;28;20429;-78
2023/06/30 06:46:05;;;;;;;0.22;0.22;;;;;;;14.46;100.00;100365.84;5036059;28;20028;-79
2023/06/30 06:48:31;;;;;;;0.20;0.20;;;;;;;14.48;100.00;100370.00;5035394;28;20071;-79
2023/06/30 06:51:02;;;;;;;0.55;0.30;;;;;;;14.55;100.00;100367.31;5052401;28;20432;-80
2023/06/30 06:53:29;;;;;;;0.55;0.30;;;;;;;14.58;100.00;100366.91;5019801;28;20048;-80
2023/06/30 06:55:58;;;;;;;0.47;0.30;;;;;;;14.68;100.00;100369.16;5052608;28;20036;-80
2023/06/30 06:58:55;;;;;;;1.98;0.65;;;;;;;14.69;100.00;100360.00;5051913;28;20119;-80
2023/06/30 07:01:21;;;;;;;0.40;0.32;;;;;;;14.78;100.00;100364.13;5051911;28;20045;-79
2023/06/30 07:03:46;;;;;;;0.40;0.30;;;;;;;14.84;100.00;100373.28;5035793;28;20041;-80
2023/06/30 07:06:12;;;;;;;1.75;0.55;;;;;;;14.85;100.00;100367.66;5018571;28;20106;-79
2023/06/30 07:08:39;;;;;;;1.75;0.55;;;;;;;14.90;100.00;100367.03;5052045;28;20033;-78
2023/06/30 07:11:06;;;;;;;0.30;0.30;;;;;;;14.97;100.00;100362.41;5035931;28;20040;-79
2023/06/30 07:13:32;;;;;;;0.77;0.40;;;;;;;15.03;100.00;100356.16;5052009;28;20032;-79
2023/06/30 07:15:58;;;;;;;0.60;0.35;;;;;;;15.09;100.00;100357.16;5035098;28;20029;-79
2023/06/30 07:18:27;;;;;;;2.45;0.70;;;;;;;15.05;100.00;100364.84;5035411;28;20138;-78
2023/06/30 07:20:56;;;;;;;0.95;0.40;;;;;;;15.01;100.00;100360.94;5035038;28;20433;-79
2023/06/30 07:23:23;;;;;;;0.68;0.35;;;;;;;15.00;100.00;100363.84;5019407;28;20029;-79
2023/06/30 07:25:49;;;;;;;0.35;0.30;;;;;;;15.03;100.00;100361.56;5019073;28;20025;-79
2023/06/30 07:28:15;;;;;;;0.47;0.30;;;;;;;14.94;100.00;100347.41;5035237;28;20111;-79
2023/06/30 07:30:41;;;;;;;0.30;0.30;;;;;;;15.00;100.00;100355.72;5051808;28;20049;-79
2023/06/30 07:33:07;;;;;;;0.98;0.40;;;;;;;15.03;100.00;100363.41;5051818;28;20029;-79
2023/06/30 07:35:33;;;;;;;0.22;0.20;;;;;;;15.06;100.00;100366.53;5051662;28;20032;-78
2023/06/30 07:37:58;;;;;;;1.08;0.55;;;;;;;15.07;100.00;100368.19;5051909;28;20045;-79
2023/06/30 07:40:24;;;;;;;1.02;0.40;;;;;;;15.19;100.00;100362.94;5035608;28;20037;-79
2023/06/30 07:42:50;;;;;;;0.30;0.30;;;;;;;15.30;100.00;100367.66;5052627;28;20368;-79
2023/06/30 07:45:16;;;;;;;0.30;0.30;;;;;;;15.49;100.00;100373.19;5035020;28;20056;-79
2023/06/30 07:47:44;;;;;;;0.57;0.40;;;;;;;15.57;100.00;100375.66;5037896;28;20115;-79
2023/06/30 07:50:12;;;;;;;0.50;0.38;;;;;;;15.56;100.00;100357.75;5055574;28;20364;-78
2023/06/30 07:52:44;;;;;;;1.63;0.60;;;;;;;15.48;100.00;100345.28;5023705;28;20041;-80
2023/06/30 07:55:12;;;;;;;1.98;0.70;;;;;;;15.55;100.00;100375.03;5056223;28;20037;-83
2023/06/30 07:57:38;;;;;;;1.42;0.60;;;;;;;15.56;100.00;100353.16;5037783;28;20107;-81
2023/06/30 08:00:06;;;;;;;0.30;0.30;;;;;;;15.68;100.00;100366.81;5054652;28;20047;-81
2023/06/30 08:02:32;;;;;;;0.30;0.30;;;;;;;15.77;100.00;100362.84;5022927;28;20063;-82
2023/06/30 08:04:57;;;;;;;0.43;0.40;;;;;;;15.86;100.00;100362.56;5038086;28;20499;-82
2023/06/30 08:07:23;;;;;;;0.30;0.30;;;;;;;16.02;100.00;100357.41;5055022;28;20074;-81
2023/06/30 08:09:49;;;;;;;0.40;0.40;;;;;;;16.11;100.00;100349.00;5038722;28;20029;-82
2023/06/30 08:12:14;;;;;;;0.30;0.30;;;;;;;16.16;100.00;100349.97;5038657;28;20383;-81
2023/06/30 08:14:40;;;;;;;0.35;0.35;;;;;;;16.02;100.00;100345.75;5038020;28;20075;-82
2023/06/30 08:17:06;;;;;;;0.38;0.38;;;;;;;16.12;100.00;100346.06;5055291;28;20119;-83
2023/06/30 08:19:32;;;;;;;0.30;0.30;;;;;;;16.22;100.00;100351.81;5038476;28;20029;-83
2023/06/30 08:21:57;;;;;;;0.20;0.20;;;;;;;16.20;100.00;100343.06;5055248;28;20025;-83
2023/06/30 08:24:23;;;;;;;0.28;0.28;;;;;;;16.23;100.00;100347.22;5055109;28;20029;-83
2023/06/30 08:26:49;;;;;;;0.43;0.43;;;;;;;16.31;100.00;100343.41;5055836;28;20069;-83
2023/06/30 08:29:15;;;;;;;0.30;0.30;;;;;;;16.30;100.00;100325.44;5038015;28;20112;-82
2023/06/30 08:31:40;;;;;;;0.30;0.30;;;;;;;16.25;100.00;100336.97;5038407;28;20391;-83
2023/06/30 08:34:08;;;;;;;0.30;0.30;;;;;;;16.30;100.00;100328.16;5056111;28;20398;-83
2023/06/30 08:36:34;;;;;;;0.20;0.20;;;;;;;16.32;100.00;100329.59;5054958;28;20107;-84
2023/06/30 08:39:08;;;;;;;0.30;0.30;;;;;;;16.35;100.00;100325.59;5037900;28;20064;-83
2023/06/30 08:41:40;;;;;;;0.43;0.43;;;;;;;16.35;100.00;100312.03;5022263;28;20430;-84
2023/06/30 08:44:08;;;;;;;0.30;0.30;;;;;;;16.54;100.00;100334.59;5021555;28;20048;-82
2023/06/30 08:46:33;;;;;;;0.30;0.30;;;;;;;16.30;100.00;100329.00;5054891;28;20051;-82
2023/06/30 08:48:59;;;;;;;0.30;0.30;;;;;;;16.17;100.00;100335.38;5054686;28;20025;-82
2023/06/30 08:51:28;;;;;;;0.73;0.38;;;;;;;16.24;100.00;100346.16;5021925;28;20546;-83
2023/06/30 08:53:54;;;;;;;0.32;0.32;;;;;;;16.22;100.00;100332.84;5054367;28;20029;-82
2023/06/30 08:56:20;;;;;;;0.43;0.40;;;;;;;16.23;100.00;100347.22;5054593;28;20040;-82
2023/06/30 08:58:46;;;;;;;0.25;0.25;;;;;;;16.14;100.00;100346.69;5053668;28;20052;-82
2023/06/30 09:01:12;;;;;;;0.30;0.30;;;;;;;16.09;100.00;100337.53;5055386;28;20463;-82
2023/06/30 09:03:38;;;;;;;0.40;0.40;;;;;;;16.02;100.00;100327.56;5055798;28;20032;-81
2023/06/30 09:06:04;;;;;;;0.35;0.35;;;;;;;16.03;100.00;100339.25;5037320;28;20045;-83
2023/06/30 09:08:59;;;;;;;0.30;0.30;;;;;;;16.23;100.00;100337.19;5054098;28;20112;-83
2023/06/30 09:11:27;;;;;;;0.20;0.20;;;;;;;16.38;100.00;100336.00;5036926;28;20048;-83
2023/06/30 09:13:53;;;;;;;0.40;0.40;;;;;;;16.47;100.00;100331.94;5004916;28;20044;-81
2023/06/30 09:16:19;;;;;;;0.40;0.40;;;;;;;16.40;100.00;100323.03;5037723;28;20045;-81
2023/06/30 09:18:47;;;;;;;0.38;0.38;;;;;;;16.32;100.00;100323.34;5037608;28;20036;-81
2023/06/30 09:21:12;;;;;;;0.25;0.25;;;;;;;16.40;100.00;100323.03;5037288;28;20025;-81
2023/06/30 09:23:38;;;;;;;0.30;0.30;;;;;;;16.34;100.00;100321.25;5037421;28;20040;-83
2023/06/30 09:26:13;;;;;;;0.30;0.30;;;;;;;16.51;100.00;100314.16;5055216;28;20028;-83
2023/06/30 09:28:43;;;;;;;0.30;0.30;;;;;;;16.49;100.00;100303.53;5037202;28;20434;-82
2023/06/30 09:31:09;;;;;;;0.30;0.30;;;;;;;16.61;100.00;100314.47;5021402;28;20033;-82
2023/06/30 09:33:36;;;;;;;0.20;0.20;;;;;;;16.72;100.00;100307.44;5053791;28;20399;-83
2023/06/30 09:36:03;;;;;;;0.30;0.30;;;;;;;16.73;100.00;100297.44;5053538;28;20076;-82
2023/06/30 09:38:29;;;;;;;0.20;0.20;;;;;;;16.49;100.00;100294.56;5054230;28;20487;-83
2023/06/30 09:40:56;;;;;;;0.30;0.30;;;;;;;16.39;100.00;100297.81;5053725;28;20024;-83
2023/06/30 09:43:24;;;;;;;0.52;0.40;;;;;;;16.41;100.00;100294.88;5053782;28;20115;-84
2023/06/30 09:46:00;;;;;;;1.45;0.50;;;;;;;16.51;100.00;100294.31;5020456;28;20394;-83
2023/06/30 09:48:31;;;;;;;0.88;0.40;;;;;;;16.51;100.00;100297.03;5053320;28;20116;-83
2023/06/30 09:50:57;;;;;;;0.40;0.30;;;;;;;16.31;100.00;100289.13;5037168;28;20037;-83
2023/06/30 09:53:22;;;;;;;0.30;0.30;;;;;;;16.34;100.00;100302.25;5053339;28;20052;-83
2023/06/30 09:55:49;;;;;;;1.17;0.50;;;;;;;16.26;100.00;100287.09;5053599;28;20490;-84
2023/06/30 09:58:17;;;;;;;1.02;0.47;;;;;;;16.22;100.00;100303.00;5053196;28;20053;-83
2023/06/30 10:00:43;;;;;;;0.77;0.40;;;;;;;16.16;100.00;100295.72;5053175;28;20065;-82
2023/06/30 10:03:09;;;;;;;1.55;0.55;;;;;;;16.14;100.00;100292.44;5053124;28;20068;-82
2023/06/30 10:05:36;;;;;;;1.08;0.50;;;;;;;16.13;100.00;100288.06;5053260;28;20060;-83
2023/06/30 10:08:06;;;;;;;0.40;0.40;;;;;;;16.24;100.00;100300.03;5036627;28;20037;-81
2023/06/30 10:10:31;;;;;;;0.90;0.47;;;;;;;16.24;100.00;100290.00;5052059;28;20056;-82
2023/06/30 10:12:58;;;;;;;0.45;0.35;;;;;;;16.38;100.00;100300.72;5054451;28;20079;-81
2023/06/30 10:15:25;;;;;;;0.30;0.30;;;;;;;16.47;100.00;100304.81;5053077;28;20040;-82
2023/06/30 10:17:52;;;;;;;0.52;0.40;;;;;;;16.44;100.00;100289.00;5003861;28;20071;-81
2023/06/30 10:20:18;;;;;;;0.32;0.32;;;;;;;16.48;100.00;100295.59;5020242;28;20033;-81
2023/06/30 10:22:44;;;;;;;0.40;0.40;;;;;;;16.40;100.00;100290.47;5036331;28;20037;-81
2023/06/30 10:25:10;;;;;;;0.30;0.30;;;;;;;16.37;100.00;100288.22;5052702;28;20036;-81
2023/06/30 10:27:37;;;;;;;0.30;0.30;;;;;;;16.36;100.00;100297.44;5052937;28;20036;-82
2023/06/30 10:30:03;;;;;;;0.20;0.20;;;;;;;16.26;100.00;100285.19;5036428;28;20086;-82
2023/06/30 10:32:30;;;;;;;0.38;0.38;;;;;;;16.11;100.00;100263.03;5053861;28;20060;-82
2023/06/30 10:34:57;;;;;;;0.43;0.40;;;;;;;16.37;100.00;100291.75;5036264;28;20063;-82
2023/06/30 10:37:23;;;;;;;0.55;0.40;;;;;;;16.39;100.00;100294.25;5052850;28;20056;-82
2023/06/30 10:39:49;;;;;;;0.65;0.38;;;;;;;16.34;100.00;100294.09;5036120;28;20594;-83
2023/06/30 10:42:16;;;;;;;1.08;0.52;;;;;;;16.24;100.00;100279.16;5053815;28;20029;-84
2023/06/30 10:44:46;;;;;;;0.65;0.40;;;;;;;16.26;100.00;100278.94;5062651;28;20093;-81
2023/06/30 10:47:13;;;;;;;0.30;0.30;;;;;;;16.27;100.00;100286.88;5030443;28;20028;-82
2023/06/30 10:49:40;;;;;;;0.43;0.38;;;;;;;16.29;100.00;100285.81;5036926;28;20035;-83
2023/06/30 10:52:09;;;;;;;0.30;0.30;;;;;;;16.35;100.00;100280.28;5053028;28;20083;-84
2023/06/30 10:54:44;;;;;;;0.30;0.30;;;;;;;16.35;100.00;100269.44;5052298;28;20028;-82
2023/06/30 10:57:12;;;;;;;0.30;0.30;;;;;;;16.47;100.00;100278.50;5035744;28;20052;-83
2023/06/30 10:59:42;;;;;;;0.30;0.30;;;;;;;16.50;100.00;100271.78;5035491;28;20029;-83
2023/06/30 11:02:17;;;;;;;0.50;0.30;;;;;;;16.46;100.00;100266.00;5035911;28;20595;-84
2023/06/30 11:04:45;;;;;;;0.30;0.30;;;;;;;16.64;100.00;100278.72;5052564;28;20087;-83
2023/06/30 11:07:11;;;;;;;0.30;0.30;;;;;;;16.66;100.00;100270.34;5019470;28;20116;-83
2023/06/30 11:09:48;;;;;;;0.60;0.43;;;;;;;16.60;100.00;100276.69;5052576;28;20033;-84
2023/06/30 11:12:25;;;;;;;1.08;0.50;;;;;;;16.42;100.00;100272.09;5052774;28;20112;-84
2023/06/30 11:14:55;;;;;;;1.30;0.50;;;;;;;16.36;100.00;100268.41;5051984;28;20419;-83
2023/06/30 11:17:22;;;;;;;0.85;0.47;;;;;;;16.31;100.00;100265.53;5052282;28;20116;-83